sensor_id;sensor_type;location;lat;lon;timestamp;pressure;altitude;pressure_sealevel;temperature;humidity
63582;BME280;49727;51.078;17.066;2023-09-07T00:01:34;100997.06;;;15.37;66.98
63582;BME280;49727;51.078;17.066;2023-09-07T00:16:35;101005.63;;;15.17;67.73
63582;BME280;49727;51.078;17.066;2023-09-07T00:31:35;101007.22;;;15.03;67.76
63582;BME280;49727;51.078;17.066;2023-09-07T00:46:35;100991.44;;;14.85;68.16
63582;BME280;49727;51.078;17.066;2023-09-07T01:01:36;100995.56;;;14.73;68.29
63582;BME280;49727;51.078;17.066;2023-09-07T01:16:36;100988.44;;;14.57;68.65
63582;BME280;49727;51.078;17.066;2023-09-07T01:31:40;100993.03;;;14.40;68.86
63582;BME280;49727;51.078;17.066;2023-09-07T01:46:40;100991.81;;;14.19;69.08
63582;BME280;49727;51.078;17.066;2023-09-07T02:01:40;100996.25;;;13.96;69.38
63582;BME280;49727;51.078;17.066;2023-09-07T02:16:41;101001.97;;;13.76;69.96
63582;BME280;49727;51.078;17.066;2023-09-07T02:31:42;101012.25;;;13.64;70.63
63582;BME280;49727;51.078;17.066;2023-09-07T02:46:42;101005.41;;;13.53;70.96
63582;BME280;49727;51.078;17.066;2023-09-07T03:01:42;101008.91;;;13.46;71.32
63582;BME280;49727;51.078;17.066;2023-09-07T03:16:43;101011.78;;;13.36;71.77
63582;BME280;49727;51.078;17.066;2023-09-07T03:31:43;101005.22;;;13.22;71.67
63582;BME280;49727;51.078;17.066;2023-09-07T03:46:43;101013.72;;;13.09;72.20
63582;BME280;49727;51.078;17.066;2023-09-07T04:01:43;101015.41;;;12.94;72.22
63582;BME280;49727;51.078;17.066;2023-09-07T04:16:44;101017.91;;;12.87;72.56
63582;BME280;49727;51.078;17.066;2023-09-07T04:31:44;101024.94;;;12.88;73.04
63582;BME280;49727;51.078;17.066;2023-09-07T04:46:45;101051.19;;;13.09;73.15
63582;BME280;49727;51.078;17.066;2023-09-07T05:01:45;101055.56;;;13.51;73.30
63582;BME280;49727;51.078;17.066;2023-09-07T05:16:46;101049.47;;;14.07;72.85
63582;BME280;49727;51.078;17.066;2023-09-07T05:31:46;101065.78;;;14.77;72.24
63582;BME280;49727;51.078;17.066;2023-09-07T05:46:46;101079.38;;;15.68;71.17
63582;BME280;49727;51.078;17.066;2023-09-07T06:01:47;101087.94;;;16.61;69.63
63582;BME280;49727;51.078;17.066;2023-09-07T06:16:48;101088.97;;;17.62;68.25
63582;BME280;49727;51.078;17.066;2023-09-07T06:31:48;101100.13;;;18.50;67.16
63582;BME280;49727;51.078;17.066;2023-09-07T06:46:50;101105.00;;;19.64;65.03
63582;BME280;49727;51.078;17.066;2023-09-07T07:01:50;101118.06;;;20.86;62.24
63582;BME280;49727;51.078;17.066;2023-09-07T07:16:50;101125.88;;;21.71;58.84
63582;BME280;49727;51.078;17.066;2023-09-07T07:31:51;101127.13;;;23.05;56.76
63582;BME280;49727;51.078;17.066;2023-09-07T07:46:51;101137.41;;;23.99;53.12
63582;BME280;49727;51.078;17.066;2023-09-07T08:01:52;101140.34;;;25.61;50.18
63582;BME280;49727;51.078;17.066;2023-09-07T08:16:53;101131.31;;;27.27;45.71
63582;BME280;49727;51.078;17.066;2023-09-07T08:31:53;101136.75;;;28.35;41.33
63582;BME280;49727;51.078;17.066;2023-09-07T08:46:54;101129.09;;;29.93;37.73
63582;BME280;49727;51.078;17.066;2023-09-07T09:01:58;101131.41;;;37.94;26.19
63582;BME280;49727;51.078;17.066;2023-09-07T09:16:58;101124.75;;;43.72;20.21
63582;BME280;49727;51.078;17.066;2023-09-07T09:32:02;101123.63;;;47.36;16.55
63582;BME280;49727;51.078;17.066;2023-09-07T09:47:04;101098.72;;;49.86;13.95
63582;BME280;49727;51.078;17.066;2023-09-07T10:02:06;101105.84;;;51.72;12.45
63582;BME280;49727;51.078;17.066;2023-09-07T10:17:08;101093.47;;;53.78;10.68
63582;BME280;49727;51.078;17.066;2023-09-07T10:32:09;101100.81;;;55.60;9.72
63582;BME280;49727;51.078;17.066;2023-09-07T10:47:15;101085.06;;;53.88;9.61
63582;BME280;49727;51.078;17.066;2023-09-07T11:02:15;101050.38;;;55.79;8.65
63582;BME280;49727;51.078;17.066;2023-09-07T11:17:16;101046.16;;;56.47;7.92
63582;BME280;49727;51.078;17.066;2023-09-07T11:32:16;101046.00;;;56.09;7.96
63582;BME280;49727;51.078;17.066;2023-09-07T11:47:21;101019.88;;;53.90;8.52
63582;BME280;49727;51.078;17.066;2023-09-07T12:02:22;101016.25;;;48.19;11.62
63582;BME280;49727;51.078;17.066;2023-09-07T12:17:23;101007.97;;;40.97;16.81
63582;BME280;49727;51.078;17.066;2023-09-07T12:32:23;101001.06;;;37.06;19.91
63582;BME280;49727;51.078;17.066;2023-09-07T12:47:23;100975.88;;;35.31;21.54
63582;BME280;49727;51.078;17.066;2023-09-07T13:02:24;100965.19;;;34.84;21.94
63582;BME280;49727;51.078;17.066;2023-09-07T13:17:24;100958.63;;;33.84;23.26
63582;BME280;49727;51.078;17.066;2023-09-07T13:32:25;100950.84;;;33.31;23.66
63582;BME280;49727;51.078;17.066;2023-09-07T13:47:25;100949.44;;;32.67;24.64
63582;BME280;49727;51.078;17.066;2023-09-07T14:02:25;100939.19;;;32.16;25.73
63582;BME280;49727;51.078;17.066;2023-09-07T14:17:26;100936.19;;;30.91;26.83
63582;BME280;49727;51.078;17.066;2023-09-07T14:32:26;100932.56;;;30.21;28.49
63582;BME280;49727;51.078;17.066;2023-09-07T14:47:30;100924.94;;;29.48;29.61
63582;BME280;49727;51.078;17.066;2023-09-07T15:02:30;100917.88;;;29.11;30.18
63582;BME280;49727;51.078;17.066;2023-09-07T15:17:30;100909.38;;;28.50;30.49
63582;BME280;49727;51.078;17.066;2023-09-07T15:32:31;100919.97;;;28.00;31.90
63582;BME280;49727;51.078;17.066;2023-09-07T15:47:32;100899.97;;;27.36;33.02
63582;BME280;49727;51.078;17.066;2023-09-07T16:02:34;100887.91;;;26.90;34.31
63582;BME280;49727;51.078;17.066;2023-09-07T16:17:35;100896.50;;;26.39;35.51
63582;BME280;49727;51.078;17.066;2023-09-07T16:32:36;100902.47;;;25.86;36.48
63582;BME280;49727;51.078;17.066;2023-09-07T16:47:42;100908.38;;;25.33;37.64
63582;BME280;49727;51.078;17.066;2023-09-07T17:02:42;100904.78;;;24.77;39.17
63582;BME280;49727;51.078;17.066;2023-09-07T17:17:42;100915.16;;;24.17;40.82
63582;BME280;49727;51.078;17.066;2023-09-07T17:32:43;100925.34;;;23.57;42.20
63582;BME280;49727;51.078;17.066;2023-09-07T17:47:43;100921.34;;;23.01;43.77
63582;BME280;49727;51.078;17.066;2023-09-07T18:02:44;100921.97;;;22.48;45.18
63582;BME280;49727;51.078;17.066;2023-09-07T18:17:45;100920.69;;;22.02;46.33
63582;BME280;49727;51.078;17.066;2023-09-07T18:32:45;100930.56;;;21.59;47.63
63582;BME280;49727;51.078;17.066;2023-09-07T18:47:47;100932.22;;;21.17;48.59
63582;BME280;49727;51.078;17.066;2023-09-07T19:02:48;100933.16;;;20.78;49.64
63582;BME280;49727;51.078;17.066;2023-09-07T19:17:48;100940.63;;;20.44;50.66
63582;BME280;49727;51.078;17.066;2023-09-07T19:32:49;100940.59;;;20.19;51.52
63582;BME280;49727;51.078;17.066;2023-09-07T19:47:49;100935.69;;;19.96;52.55
63582;BME280;49727;51.078;17.066;2023-09-07T20:02:50;100936.41;;;19.65;53.70
63582;BME280;49727;51.078;17.066;2023-09-07T20:17:50;100945.41;;;19.38;54.47
63582;BME280;49727;51.078;17.066;2023-09-07T20:32:51;100939.19;;;19.11;55.10
63582;BME280;49727;51.078;17.066;2023-09-07T20:47:52;100937.91;;;18.87;55.79
63582;BME280;49727;51.078;17.066;2023-09-07T21:02:52;100939.75;;;18.59;56.69
63582;BME280;49727;51.078;17.066;2023-09-07T21:17:52;100930.34;;;18.35;57.55
63582;BME280;49727;51.078;17.066;2023-09-07T21:32:53;100920.31;;;18.09;58.38
63582;BME280;49727;51.078;17.066;2023-09-07T21:47:53;100928.91;;;17.84;59.31
63582;BME280;49727;51.078;17.066;2023-09-07T22:02:54;100923.41;;;17.64;59.96
63582;BME280;49727;51.078;17.066;2023-09-07T22:17:54;100931.34;;;17.44;60.88
63582;BME280;49727;51.078;17.066;2023-09-07T22:32:54;100926.06;;;17.22;61.57
63582;BME280;49727;51.078;17.066;2023-09-07T22:47:55;100930.81;;;16.99;62.32
63582;BME280;49727;51.078;17.066;2023-09-07T23:02:56;100920.19;;;16.69;62.94
63582;BME280;49727;51.078;17.066;2023-09-07T23:17:57;100922.31;;;16.52;63.72
63582;BME280;49727;51.078;17.066;2023-09-07T23:32:57;100916.09;;;16.30;64.32
63582;BME280;49727;51.078;17.066;2023-09-07T23:47:59;100916.22;;;16.06;65.09
